<?xml version="1.0" encoding="UTF-8" standalone="no" ?>
<gpx xmlns="http://www.topografix.com/GPX/1/1" xmlns:xsi="http://www.w3.org/2001/XMLSchema-instance" xsi:schemaLocation="http://www.topografix.com/GPX/1/1 http://www.topografix.com/GPX/1/1/gpx.xsd" version="1.1" creator="VisuGPX - https://www.visugpx.com">
  <metadata>
    <name>Norvège</name>
  </metadata>
  <trk>
    <name><![CDATA[Tour d'Europe: étape 042]]></name>
    <trkseg>
      <trkpt lat="63.95746" lon="10.22164">
        <ele>53.409703</ele>
        <time>2020-08-09T08:15:46.677Z</time>
      </trkpt>
      <trkpt lat="63.95862" lon="10.22552">
        <ele>51.604347</ele>
        <time>2020-08-09T08:16:50.720Z</time>
      </trkpt>
      <trkpt lat="63.96037" lon="10.22525">
        <ele>58.834173</ele>
        <time>2020-08-09T08:18:04.719Z</time>
      </trkpt>
      <trkpt lat="63.96222" lon="10.22279">
        <ele>62.045082</ele>
        <time>2020-08-09T08:19:08.675Z</time>
      </trkpt>
      <trkpt lat="63.96413" lon="10.22099">
        <ele>59.041647</ele>
        <time>2020-08-09T08:20:08.682Z</time>
      </trkpt>
      <trkpt lat="63.96586" lon="10.22099">
        <ele>63.421811</ele>
        <time>2020-08-09T08:21:17.677Z</time>
      </trkpt>
      <trkpt lat="63.96695" lon="10.22505">
        <ele>62.471842</ele>
        <time>2020-08-09T08:28:24.700Z</time>
      </trkpt>
      <trkpt lat="63.96923" lon="10.22526">
        <ele>64.565</ele>
        <time>2020-08-09T08:29:22.702Z</time>
      </trkpt>
      <trkpt lat="63.97109" lon="10.22709">
        <ele>74.960953</ele>
        <time>2020-08-09T08:30:40.716Z</time>
      </trkpt>
      <trkpt lat="63.97261" lon="10.23021">
        <ele>86.869886</ele>
        <time>2020-08-09T08:32:24.678Z</time>
      </trkpt>
      <trkpt lat="63.97397" lon="10.23327">
        <ele>100.4429</ele>
        <time>2020-08-09T08:34:39.726Z</time>
      </trkpt>
      <trkpt lat="63.97564" lon="10.23667">
        <ele>99.265127</ele>
        <time>2020-08-09T08:35:45.724Z</time>
      </trkpt>
      <trkpt lat="63.97721" lon="10.24024">
        <ele>98.478933</ele>
        <time>2020-08-09T08:36:45.719Z</time>
      </trkpt>
      <trkpt lat="63.9784" lon="10.24465">
        <ele>97.319733</ele>
        <time>2020-08-09T08:37:31.683Z</time>
      </trkpt>
      <trkpt lat="63.98001" lon="10.24999">
        <ele>87.485243</ele>
        <time>2020-08-09T08:38:11.685Z</time>
      </trkpt>
      <trkpt lat="63.98123" lon="10.25641">
        <ele>83.630189</ele>
        <time>2020-08-09T08:38:53.676Z</time>
      </trkpt>
      <trkpt lat="63.98232" lon="10.2605">
        <ele>81.544733</ele>
        <time>2020-08-09T08:39:36.722Z</time>
      </trkpt>
      <trkpt lat="63.98363" lon="10.26542">
        <ele>92.932186</ele>
        <time>2020-08-09T08:40:36.700Z</time>
      </trkpt>
      <trkpt lat="63.98461" lon="10.26986">
        <ele>93.171802</ele>
        <time>2020-08-09T08:41:25.692Z</time>
      </trkpt>
      <trkpt lat="63.98613" lon="10.27376">
        <ele>90.078023</ele>
        <time>2020-08-09T08:42:18.695Z</time>
      </trkpt>
      <trkpt lat="63.98764" lon="10.27752">
        <ele>85.625454</ele>
        <time>2020-08-09T08:43:01.671Z</time>
      </trkpt>
      <trkpt lat="63.98877" lon="10.28125">
        <ele>85.59393</ele>
        <time>2020-08-09T08:43:41.730Z</time>
      </trkpt>
      <trkpt lat="63.98983" lon="10.28526">
        <ele>91.418314</ele>
        <time>2020-08-09T08:44:35.687Z</time>
      </trkpt>
      <trkpt lat="63.99103" lon="10.2901">
        <ele>88.832079</ele>
        <time>2020-08-09T08:45:35.718Z</time>
      </trkpt>
      <trkpt lat="63.99255" lon="10.29505">
        <ele>87.629146</ele>
        <time>2020-08-09T08:46:29.680Z</time>
      </trkpt>
      <trkpt lat="63.99429" lon="10.29746">
        <ele>94.118017</ele>
        <time>2020-08-09T08:47:37.713Z</time>
      </trkpt>
      <trkpt lat="63.99585" lon="10.30063">
        <ele>95.917183</ele>
        <time>2020-08-09T08:48:49.678Z</time>
      </trkpt>
      <trkpt lat="63.99642" lon="10.30564">
        <ele>91.05354</ele>
        <time>2020-08-09T08:49:37.683Z</time>
      </trkpt>
      <trkpt lat="63.99736" lon="10.30992">
        <ele>78.744623</ele>
        <time>2020-08-09T08:49:57.681Z</time>
      </trkpt>
      <trkpt lat="63.99877" lon="10.31474">
        <ele>81.253171</ele>
        <time>2020-08-09T08:50:36.677Z</time>
      </trkpt>
      <trkpt lat="64.00048" lon="10.31841">
        <ele>84.321926</ele>
        <time>2020-08-09T08:51:32.673Z</time>
      </trkpt>
      <trkpt lat="64.00182" lon="10.32296">
        <ele>89.298001</ele>
        <time>2020-08-09T08:52:32.727Z</time>
      </trkpt>
      <trkpt lat="64.0032" lon="10.32707">
        <ele>90.043176</ele>
        <time>2020-08-09T08:53:14.673Z</time>
      </trkpt>
      <trkpt lat="64.0045" lon="10.33156">
        <ele>89.336371</ele>
        <time>2020-08-09T08:54:03.700Z</time>
      </trkpt>
      <trkpt lat="64.00587" lon="10.33513">
        <ele>90.941755</ele>
        <time>2020-08-09T08:55:08.684Z</time>
      </trkpt>
      <trkpt lat="64.00727" lon="10.33822">
        <ele>102.647478</ele>
        <time>2020-08-09T08:56:52.723Z</time>
      </trkpt>
      <trkpt lat="64.00842" lon="10.34171">
        <ele>119.364876</ele>
        <time>2020-08-09T08:59:08.695Z</time>
      </trkpt>
      <trkpt lat="64.01006" lon="10.34489">
        <ele>128.633527</ele>
        <time>2020-08-09T09:00:47.693Z</time>
      </trkpt>
      <trkpt lat="64.01132" lon="10.34822">
        <ele>134.580525</ele>
        <time>2020-08-09T09:02:39.697Z</time>
      </trkpt>
      <trkpt lat="64.01256" lon="10.35159">
        <ele>146.354276</ele>
        <time>2020-08-09T09:04:51.695Z</time>
      </trkpt>
      <trkpt lat="64.01398" lon="10.3546">
        <ele>155.424856</ele>
        <time>2020-08-09T09:06:51.684Z</time>
      </trkpt>
      <trkpt lat="64.01522" lon="10.35804">
        <ele>163.062618</ele>
        <time>2020-08-09T09:08:39.727Z</time>
      </trkpt>
      <trkpt lat="64.01653" lon="10.36205">
        <ele>167.181499</ele>
        <time>2020-08-09T09:10:06.699Z</time>
      </trkpt>
      <trkpt lat="64.01775" lon="10.36573">
        <ele>168.875223</ele>
        <time>2020-08-09T09:11:07.725Z</time>
      </trkpt>
      <trkpt lat="64.0187" lon="10.37057">
        <ele>166.757362</ele>
        <time>2020-08-09T09:11:58.720Z</time>
      </trkpt>
      <trkpt lat="64.0204" lon="10.37448">
        <ele>151.978925</ele>
        <time>2020-08-09T09:12:18.711Z</time>
      </trkpt>
      <trkpt lat="64.02249" lon="10.37885">
        <ele>129.963873</ele>
        <time>2020-08-09T09:12:40.674Z</time>
      </trkpt>
      <trkpt lat="64.02405" lon="10.3819">
        <ele>133.836337</ele>
        <time>2020-08-09T09:14:18.731Z</time>
      </trkpt>
      <trkpt lat="64.02538" lon="10.38553">
        <ele>141.275484</ele>
        <time>2020-08-09T09:15:39.709Z</time>
      </trkpt>
      <trkpt lat="64.02629" lon="10.3895">
        <ele>143.722184</ele>
        <time>2020-08-09T09:16:42.680Z</time>
      </trkpt>
      <trkpt lat="64.02772" lon="10.39313">
        <ele>150.731247</ele>
        <time>2020-08-09T09:18:07.669Z</time>
      </trkpt>
      <trkpt lat="64.02904" lon="10.39656">
        <ele>157.310951</ele>
        <time>2020-08-09T09:19:37.676Z</time>
      </trkpt>
      <trkpt lat="64.03044" lon="10.40044">
        <ele>153.308586</ele>
        <time>2020-08-09T09:20:42.718Z</time>
      </trkpt>
      <trkpt lat="64.03195" lon="10.40456">
        <ele>143.840826</ele>
        <time>2020-08-09T09:21:10.729Z</time>
      </trkpt>
      <trkpt lat="64.03347" lon="10.4084">
        <ele>146.815047</ele>
        <time>2020-08-09T09:21:51.689Z</time>
      </trkpt>
      <trkpt lat="64.03481" lon="10.41181">
        <ele>161.693301</ele>
        <time>2020-08-09T09:24:02.681Z</time>
      </trkpt>
      <trkpt lat="64.0361" lon="10.41514">
        <ele>169.942468</ele>
        <time>2020-08-09T09:26:00.709Z</time>
      </trkpt>
      <trkpt lat="64.03756" lon="10.41885">
        <ele>167.304412</ele>
        <time>2020-08-09T09:26:50.730Z</time>
      </trkpt>
      <trkpt lat="64.03898" lon="10.42245">
        <ele>169.734852</ele>
        <time>2020-08-09T09:27:54.681Z</time>
      </trkpt>
      <trkpt lat="64.04048" lon="10.42614">
        <ele>172.284658</ele>
        <time>2020-08-09T09:29:08.717Z</time>
      </trkpt>
      <trkpt lat="64.04221" lon="10.4288">
        <ele>170.979875</ele>
        <time>2020-08-09T09:29:48.679Z</time>
      </trkpt>
      <trkpt lat="64.04382" lon="10.43187">
        <ele>176.003607</ele>
        <time>2020-08-09T09:30:46.711Z</time>
      </trkpt>
      <trkpt lat="64.04509" lon="10.43528">
        <ele>186.785377</ele>
        <time>2020-08-09T09:32:30.677Z</time>
      </trkpt>
      <trkpt lat="64.04643" lon="10.43867">
        <ele>190.366801</ele>
        <time>2020-08-09T09:33:58.725Z</time>
      </trkpt>
      <trkpt lat="64.04841" lon="10.44297">
        <ele>175.666057</ele>
        <time>2020-08-09T09:34:38.685Z</time>
      </trkpt>
      <trkpt lat="64.05099" lon="10.44567">
        <ele>170.801897</ele>
        <time>2020-08-09T09:35:18.692Z</time>
      </trkpt>
      <trkpt lat="64.05289" lon="10.44774">
        <ele>178.500039</ele>
        <time>2020-08-09T09:36:36.691Z</time>
      </trkpt>
      <trkpt lat="64.05455" lon="10.45054">
        <ele>177.867871</ele>
        <time>2020-08-09T09:37:27.684Z</time>
      </trkpt>
      <trkpt lat="64.05648" lon="10.45312">
        <ele>178.999471</ele>
        <time>2020-08-09T09:38:33.686Z</time>
      </trkpt>
      <trkpt lat="64.05826" lon="10.45521">
        <ele>185.786887</ele>
        <time>2020-08-09T09:40:07.701Z</time>
      </trkpt>
      <trkpt lat="64.06007" lon="10.45716">
        <ele>193.080606</ele>
        <time>2020-08-09T09:41:34.714Z</time>
      </trkpt>
      <trkpt lat="64.06202" lon="10.45927">
        <ele>196.588942</ele>
        <time>2020-08-09T09:42:53.699Z</time>
      </trkpt>
      <trkpt lat="64.06391" lon="10.46157">
        <ele>202.750421</ele>
        <time>2020-08-09T09:44:29.716Z</time>
      </trkpt>
      <trkpt lat="64.06562" lon="10.46416">
        <ele>205.678721</ele>
        <time>2020-08-09T09:45:44.709Z</time>
      </trkpt>
      <trkpt lat="64.06734" lon="10.46693">
        <ele>209.7981</ele>
        <time>2020-08-09T09:47:00.707Z</time>
      </trkpt>
      <trkpt lat="64.0688" lon="10.47011">
        <ele>212.281286</ele>
        <time>2020-08-09T09:48:18.719Z</time>
      </trkpt>
      <trkpt lat="64.07053" lon="10.47353">
        <ele>205.975904</ele>
        <time>2020-08-09T09:48:55.697Z</time>
      </trkpt>
      <trkpt lat="64.07275" lon="10.4764">
        <ele>201.803377</ele>
        <time>2020-08-09T09:49:31.695Z</time>
      </trkpt>
      <trkpt lat="64.07441" lon="10.47928">
        <ele>206.993925</ele>
        <time>2020-08-09T09:50:45.695Z</time>
      </trkpt>
      <trkpt lat="64.07603" lon="10.48242">
        <ele>212.33909</ele>
        <time>2020-08-09T09:52:05.690Z</time>
      </trkpt>
      <trkpt lat="64.07746" lon="10.48575">
        <ele>217.767628</ele>
        <time>2020-08-09T09:53:26.687Z</time>
      </trkpt>
      <trkpt lat="64.07901" lon="10.48891">
        <ele>218.914622</ele>
        <time>2020-08-09T09:54:33.685Z</time>
      </trkpt>
      <trkpt lat="64.08009" lon="10.49286">
        <ele>223.669915</ele>
        <time>2020-08-09T09:55:40.676Z</time>
      </trkpt>
      <trkpt lat="64.08227" lon="10.49528">
        <ele>225.183378</ele>
        <time>2020-08-09T10:04:35.721Z</time>
      </trkpt>
      <trkpt lat="64.08427" lon="10.49544">
        <ele>227.91668</ele>
        <time>2020-08-09T10:06:07.684Z</time>
      </trkpt>
      <trkpt lat="64.086" lon="10.49758">
        <ele>236.568251</ele>
        <time>2020-08-09T10:07:52.723Z</time>
      </trkpt>
      <trkpt lat="64.08739" lon="10.50091">
        <ele>250.093136</ele>
        <time>2020-08-09T10:09:57.718Z</time>
      </trkpt>
      <trkpt lat="64.08868" lon="10.50412">
        <ele>262.925534</ele>
        <time>2020-08-09T10:12:29.696Z</time>
      </trkpt>
      <trkpt lat="64.09054" lon="10.50555">
        <ele>269.249491</ele>
        <time>2020-08-09T10:14:33.695Z</time>
      </trkpt>
      <trkpt lat="64.09208" lon="10.50843">
        <ele>272.056978</ele>
        <time>2020-08-09T10:15:54.724Z</time>
      </trkpt>
      <trkpt lat="64.094" lon="10.51001">
        <ele>275.603261</ele>
        <time>2020-08-09T10:17:41.688Z</time>
      </trkpt>
      <trkpt lat="64.09598" lon="10.50935">
        <ele>277.376036</ele>
        <time>2020-08-09T10:18:54.706Z</time>
      </trkpt>
      <trkpt lat="64.09761" lon="10.51197">
        <ele>275.879372</ele>
        <time>2020-08-09T10:19:55.704Z</time>
      </trkpt>
      <trkpt lat="64.09676" lon="10.51601">
        <ele>279.429207</ele>
        <time>2020-08-09T10:21:34.692Z</time>
      </trkpt>
      <trkpt lat="64.09571" lon="10.52004">
        <ele>293.558196</ele>
        <time>2020-08-09T10:23:34.707Z</time>
      </trkpt>
      <trkpt lat="64.09646" lon="10.52397">
        <ele>303.192861</ele>
        <time>2020-08-09T10:25:19.701Z</time>
      </trkpt>
      <trkpt lat="64.09816" lon="10.52621">
        <ele>308.84202</ele>
        <time>2020-08-09T10:27:01.704Z</time>
      </trkpt>
      <trkpt lat="64.09997" lon="10.52837">
        <ele>313.688342</ele>
        <time>2020-08-09T10:28:40.718Z</time>
      </trkpt>
      <trkpt lat="64.10208" lon="10.5309">
        <ele>307.203355</ele>
        <time>2020-08-09T10:29:25.696Z</time>
      </trkpt>
      <trkpt lat="64.10385" lon="10.53305">
        <ele>298.060241</ele>
        <time>2020-08-09T10:29:46.710Z</time>
      </trkpt>
      <trkpt lat="64.1058" lon="10.53541">
        <ele>302.864623</ele>
        <time>2020-08-09T10:30:44.704Z</time>
      </trkpt>
      <trkpt lat="64.10773" lon="10.53773">
        <ele>306.695744</ele>
        <time>2020-08-09T10:31:51.697Z</time>
      </trkpt>
      <trkpt lat="64.10981" lon="10.5403">
        <ele>302.28128</ele>
        <time>2020-08-09T10:32:39.707Z</time>
      </trkpt>
      <trkpt lat="64.11208" lon="10.54338">
        <ele>297.960685</ele>
        <time>2020-08-09T10:33:25.726Z</time>
      </trkpt>
      <trkpt lat="64.11397" lon="10.54606">
        <ele>296.972002</ele>
        <time>2020-08-09T10:34:05.689Z</time>
      </trkpt>
      <trkpt lat="64.11636" lon="10.54647">
        <ele>292.122765</ele>
        <time>2020-08-09T10:34:43.724Z</time>
      </trkpt>
      <trkpt lat="64.11829" lon="10.54595">
        <ele>284.09518</ele>
        <time>2020-08-09T10:35:03.722Z</time>
      </trkpt>
      <trkpt lat="64.12064" lon="10.54538">
        <ele>273.71497</ele>
        <time>2020-08-09T10:35:29.694Z</time>
      </trkpt>
      <trkpt lat="64.12284" lon="10.54463">
        <ele>263.015876</ele>
        <time>2020-08-09T10:35:49.698Z</time>
      </trkpt>
      <trkpt lat="64.125" lon="10.54483">
        <ele>255.075076</ele>
        <time>2020-08-09T10:36:09.769Z</time>
      </trkpt>
      <trkpt lat="64.12766" lon="10.54458">
        <ele>249.921568</ele>
        <time>2020-08-09T10:36:47.697Z</time>
      </trkpt>
      <trkpt lat="64.12961" lon="10.54524">
        <ele>249.798796</ele>
        <time>2020-08-09T10:37:29.702Z</time>
      </trkpt>
      <trkpt lat="64.13176" lon="10.54537">
        <ele>251.821934</ele>
        <time>2020-08-09T10:44:27.712Z</time>
      </trkpt>
      <trkpt lat="64.1337" lon="10.54426">
        <ele>264.045713</ele>
        <time>2020-08-09T10:46:10.696Z</time>
      </trkpt>
      <trkpt lat="64.1356" lon="10.54396">
        <ele>285.140552</ele>
        <time>2020-08-09T10:48:38.697Z</time>
      </trkpt>
      <trkpt lat="64.13752" lon="10.54364">
        <ele>302.750715</ele>
        <time>2020-08-09T10:51:14.708Z</time>
      </trkpt>
      <trkpt lat="64.13955" lon="10.54279">
        <ele>311.411488</ele>
        <time>2020-08-09T10:53:12.690Z</time>
      </trkpt>
      <trkpt lat="64.14141" lon="10.54145">
        <ele>326.798074</ele>
        <time>2020-08-09T10:55:35.717Z</time>
      </trkpt>
      <trkpt lat="64.14347" lon="10.54042">
        <ele>327.310987</ele>
        <time>2020-08-09T10:57:02.719Z</time>
      </trkpt>
      <trkpt lat="64.14651" lon="10.54329">
        <ele>310.455654</ele>
        <time>2020-08-09T10:57:42.718Z</time>
      </trkpt>
      <trkpt lat="64.1487" lon="10.54274">
        <ele>303.760382</ele>
        <time>2020-08-09T10:58:06.701Z</time>
      </trkpt>
      <trkpt lat="64.15084" lon="10.54065">
        <ele>292.962484</ele>
        <time>2020-08-09T10:58:29.691Z</time>
      </trkpt>
      <trkpt lat="64.15289" lon="10.53773">
        <ele>284.549627</ele>
        <time>2020-08-09T10:58:55.724Z</time>
      </trkpt>
      <trkpt lat="64.15395" lon="10.53357">
        <ele>293.149558</ele>
        <time>2020-08-09T11:00:19.703Z</time>
      </trkpt>
      <trkpt lat="64.15337" lon="10.52888">
        <ele>283.7017</ele>
        <time>2020-08-09T11:01:10.707Z</time>
      </trkpt>
      <trkpt lat="64.1533" lon="10.52315">
        <ele>260.237769</ele>
        <time>2020-08-09T11:01:52.742Z</time>
      </trkpt>
      <trkpt lat="64.15417" lon="10.51739">
        <ele>233.674306</ele>
        <time>2020-08-09T11:02:32.708Z</time>
      </trkpt>
      <trkpt lat="64.15616" lon="10.51237">
        <ele>207.081135</ele>
        <time>2020-08-09T11:03:12.720Z</time>
      </trkpt>
      <trkpt lat="64.15793" lon="10.50849">
        <ele>185.459247</ele>
        <time>2020-08-09T11:03:52.697Z</time>
      </trkpt>
      <trkpt lat="64.15963" lon="10.50338">
        <ele>173.955457</ele>
        <time>2020-08-09T11:04:38.707Z</time>
      </trkpt>
      <trkpt lat="64.16095" lon="10.49983">
        <ele>173.298493</ele>
        <time>2020-08-09T11:05:38.713Z</time>
      </trkpt>
      <trkpt lat="64.16173" lon="10.4947">
        <ele>161.961098</ele>
        <time>2020-08-09T11:06:06.702Z</time>
      </trkpt>
      <trkpt lat="64.1623" lon="10.48934">
        <ele>148.753129</ele>
        <time>2020-08-09T11:06:33.700Z</time>
      </trkpt>
      <trkpt lat="64.16283" lon="10.48411">
        <ele>135.154833</ele>
        <time>2020-08-09T11:07:11.728Z</time>
      </trkpt>
      <trkpt lat="64.16363" lon="10.47879">
        <ele>123.378009</ele>
        <time>2020-08-09T11:07:53.713Z</time>
      </trkpt>
      <trkpt lat="64.16595" lon="10.4766">
        <ele>112.350998</ele>
        <time>2020-08-09T11:08:33.700Z</time>
      </trkpt>
      <trkpt lat="64.16841" lon="10.47674">
        <ele>106.058767</ele>
        <time>2020-08-09T11:09:32.707Z</time>
      </trkpt>
      <trkpt lat="64.16998" lon="10.47383">
        <ele>111.472616</ele>
        <time>2020-08-09T11:11:23.726Z</time>
      </trkpt>
      <trkpt lat="64.17196" lon="10.4702">
        <ele>103.439237</ele>
        <time>2020-08-09T11:12:07.715Z</time>
      </trkpt>
      <trkpt lat="64.17393" lon="10.4705">
        <ele>104.149915</ele>
        <time>2020-08-09T11:12:49.702Z</time>
      </trkpt>
      <trkpt lat="64.17493" lon="10.46746">
        <ele>109.817298</ele>
        <time>2020-08-09T11:13:53.699Z</time>
      </trkpt>
      <trkpt lat="64.17547" lon="10.46356">
        <ele>119.714791</ele>
        <time>2020-08-09T11:16:01.697Z</time>
      </trkpt>
      <trkpt lat="64.17473" lon="10.45944">
        <ele>127.548792</ele>
        <time>2020-08-09T11:18:11.702Z</time>
      </trkpt>
      <trkpt lat="64.17371" lon="10.455">
        <ele>125.681343</ele>
        <time>2020-08-09T11:19:16.685Z</time>
      </trkpt>
      <trkpt lat="64.17322" lon="10.44975">
        <ele>114.019006</ele>
        <time>2020-08-09T11:19:42.728Z</time>
      </trkpt>
      <trkpt lat="64.17425" lon="10.44473">
        <ele>102.648323</ele>
        <time>2020-08-09T11:20:11.704Z</time>
      </trkpt>
      <trkpt lat="64.17573" lon="10.44164">
        <ele>96.951459</ele>
        <time>2020-08-09T11:20:51.717Z</time>
      </trkpt>
      <trkpt lat="64.17776" lon="10.43964">
        <ele>103.451128</ele>
        <time>2020-08-09T11:21:49.706Z</time>
      </trkpt>
      <trkpt lat="64.17972" lon="10.43822">
        <ele>102.284343</ele>
        <time>2020-08-09T11:22:50.735Z</time>
      </trkpt>
      <trkpt lat="64.18152" lon="10.43517">
        <ele>98.476394</ele>
        <time>2020-08-09T11:23:40.705Z</time>
      </trkpt>
      <trkpt lat="64.18339" lon="10.43186">
        <ele>96.728504</ele>
        <time>2020-08-09T11:24:39.697Z</time>
      </trkpt>
      <trkpt lat="64.18437" lon="10.42727">
        <ele>103.989086</ele>
        <time>2020-08-09T11:25:41.706Z</time>
      </trkpt>
      <trkpt lat="64.18601" lon="10.42362">
        <ele>107.605584</ele>
        <time>2020-08-09T11:26:39.704Z</time>
      </trkpt>
      <trkpt lat="64.18764" lon="10.42076">
        <ele>107.62487</ele>
        <time>2020-08-09T11:27:51.721Z</time>
      </trkpt>
      <trkpt lat="64.18952" lon="10.4183">
        <ele>104.448826</ele>
        <time>2020-08-09T11:28:51.700Z</time>
      </trkpt>
      <trkpt lat="64.1912" lon="10.41532">
        <ele>105.33399</ele>
        <time>2020-08-09T11:29:43.724Z</time>
      </trkpt>
      <trkpt lat="64.19204" lon="10.41049">
        <ele>102.204912</ele>
        <time>2020-08-09T11:30:35.705Z</time>
      </trkpt>
      <trkpt lat="64.19303" lon="10.40639">
        <ele>108.971706</ele>
        <time>2020-08-09T11:31:52.725Z</time>
      </trkpt>
      <trkpt lat="64.19492" lon="10.4052">
        <ele>109.653938</ele>
        <time>2020-08-09T11:33:19.700Z</time>
      </trkpt>
      <trkpt lat="64.19739" lon="10.4058">
        <ele>113.725717</ele>
        <time>2020-08-09T11:33:57.717Z</time>
      </trkpt>
      <trkpt lat="64.19843" lon="10.40939">
        <ele>131.101258</ele>
        <time>2020-08-09T11:36:40.704Z</time>
      </trkpt>
      <trkpt lat="64.19902" lon="10.41351">
        <ele>154.313342</ele>
        <time>2020-08-09T11:39:21.721Z</time>
      </trkpt>
      <trkpt lat="64.20013" lon="10.41693">
        <ele>173.650274</ele>
        <time>2020-08-09T11:42:04.717Z</time>
      </trkpt>
      <trkpt lat="64.20184" lon="10.41818">
        <ele>191.678651</ele>
        <time>2020-08-09T11:44:51.705Z</time>
      </trkpt>
      <trkpt lat="64.20361" lon="10.41944">
        <ele>212.528872</ele>
        <time>2020-08-09T11:47:48.723Z</time>
      </trkpt>
      <trkpt lat="64.2053" lon="10.42106">
        <ele>229.708663</ele>
        <time>2020-08-09T11:50:34.733Z</time>
      </trkpt>
      <trkpt lat="64.20706" lon="10.42212">
        <ele>252.416652</ele>
        <time>2020-08-09T11:53:21.708Z</time>
      </trkpt>
      <trkpt lat="64.2087" lon="10.42413">
        <ele>272.469847</ele>
        <time>2020-08-09T11:56:08.775Z</time>
      </trkpt>
      <trkpt lat="64.21046" lon="10.42579">
        <ele>287.191974</ele>
        <time>2020-08-09T11:58:43.715Z</time>
      </trkpt>
      <trkpt lat="64.21264" lon="10.42595">
        <ele>285.47332</ele>
        <time>2020-08-09T11:59:53.744Z</time>
      </trkpt>
      <trkpt lat="64.21475" lon="10.42482">
        <ele>286.937018</ele>
        <time>2020-08-09T12:00:53.721Z</time>
      </trkpt>
      <trkpt lat="64.21657" lon="10.42326">
        <ele>292.469162</ele>
        <time>2020-08-09T12:02:35.698Z</time>
      </trkpt>
      <trkpt lat="64.21805" lon="10.41992">
        <ele>288.741123</ele>
        <time>2020-08-09T12:03:49.717Z</time>
      </trkpt>
      <trkpt lat="64.22027" lon="10.41537">
        <ele>272.249523</ele>
        <time>2020-08-09T12:04:25.723Z</time>
      </trkpt>
      <trkpt lat="64.2223" lon="10.41137">
        <ele>249.473545</ele>
        <time>2020-08-09T12:05:00.712Z</time>
      </trkpt>
      <trkpt lat="64.22394" lon="10.40631">
        <ele>221.173129</ele>
        <time>2020-08-09T12:05:40.728Z</time>
      </trkpt>
      <trkpt lat="64.22455" lon="10.40137">
        <ele>204.228863</ele>
        <time>2020-08-09T12:07:48.721Z</time>
      </trkpt>
      <trkpt lat="64.22717" lon="10.40153">
        <ele>178.028677</ele>
        <time>2020-08-09T12:08:28.742Z</time>
      </trkpt>
      <trkpt lat="64.23005" lon="10.40168">
        <ele>163.773319</ele>
        <time>2020-08-09T12:09:06.712Z</time>
      </trkpt>
      <trkpt lat="64.23237" lon="10.40286">
        <ele>164.078078</ele>
        <time>2020-08-09T12:09:48.686Z</time>
      </trkpt>
      <trkpt lat="64.23439" lon="10.4023">
        <ele>159.636416</ele>
        <time>2020-08-09T12:10:28.753Z</time>
      </trkpt>
      <trkpt lat="64.23662" lon="10.4017">
        <ele>163.933739</ele>
        <time>2020-08-09T12:11:20.720Z</time>
      </trkpt>
      <trkpt lat="64.23886" lon="10.40181">
        <ele>164.893311</ele>
        <time>2020-08-09T12:12:12.711Z</time>
      </trkpt>
      <trkpt lat="64.24124" lon="10.40159">
        <ele>161.064231</ele>
        <time>2020-08-09T12:12:52.707Z</time>
      </trkpt>
      <trkpt lat="64.2432" lon="10.40251">
        <ele>163.08323</ele>
        <time>2020-08-09T12:14:20.710Z</time>
      </trkpt>
      <trkpt lat="64.24555" lon="10.40326">
        <ele>164.051695</ele>
        <time>2020-08-09T12:15:34.711Z</time>
      </trkpt>
      <trkpt lat="64.24812" lon="10.40392">
        <ele>163.55969</ele>
        <time>2020-08-09T12:16:41.722Z</time>
      </trkpt>
      <trkpt lat="64.25107" lon="10.40482">
        <ele>149.526246</ele>
        <time>2020-08-09T12:17:20.698Z</time>
      </trkpt>
      <trkpt lat="64.25254" lon="10.40934">
        <ele>133.910104</ele>
        <time>2020-08-09T12:17:48.740Z</time>
      </trkpt>
      <trkpt lat="64.25302" lon="10.41504">
        <ele>115.208949</ele>
        <time>2020-08-09T12:19:59.712Z</time>
      </trkpt>
      <trkpt lat="64.25272" lon="10.41965">
        <ele>96.813304</ele>
        <time>2020-08-09T12:20:19.720Z</time>
      </trkpt>
      <trkpt lat="64.25282" lon="10.42458">
        <ele>74.940098</ele>
        <time>2020-08-09T12:20:42.721Z</time>
      </trkpt>
      <trkpt lat="64.25481" lon="10.42661">
        <ele>57.899416</ele>
        <time>2020-08-09T12:21:04.726Z</time>
      </trkpt>
      <trkpt lat="64.25708" lon="10.42615">
        <ele>56.499091</ele>
        <time>2020-08-09T12:21:48.706Z</time>
      </trkpt>
      <trkpt lat="64.25894" lon="10.42368">
        <ele>64.696595</ele>
        <time>2020-08-09T12:23:00.715Z</time>
      </trkpt>
      <trkpt lat="64.26087" lon="10.42128">
        <ele>64.156329</ele>
        <time>2020-08-09T12:24:09.708Z</time>
      </trkpt>
      <trkpt lat="64.26344" lon="10.42296">
        <ele>54.572876</ele>
        <time>2020-08-09T12:24:49.720Z</time>
      </trkpt>
      <trkpt lat="64.26441" lon="10.41877">
        <ele>55.441497</ele>
        <time>2020-08-09T12:25:40.744Z</time>
      </trkpt>
      <trkpt lat="64.26503" lon="10.41435">
        <ele>56.746284</ele>
        <time>2020-08-09T12:26:48.728Z</time>
      </trkpt>
      <trkpt lat="64.26578" lon="10.41012">
        <ele>60.161047</ele>
        <time>2020-08-09T12:28:16.711Z</time>
      </trkpt>
      <trkpt lat="64.26785" lon="10.40836">
        <ele>63.635324</ele>
        <time>2020-08-09T12:29:21.724Z</time>
      </trkpt>
      <trkpt lat="64.26983" lon="10.4081">
        <ele>65.394233</ele>
        <time>2020-08-09T12:30:31.731Z</time>
      </trkpt>
      <trkpt lat="64.27111" lon="10.41225">
        <ele>59.495189</ele>
        <time>2020-08-09T12:31:21.724Z</time>
      </trkpt>
      <trkpt lat="64.2726" lon="10.4162">
        <ele>53.785125</ele>
        <time>2020-08-09T12:31:48.705Z</time>
      </trkpt>
      <trkpt lat="64.27456" lon="10.41465">
        <ele>54.192185</ele>
        <time>2020-08-09T12:32:47.703Z</time>
      </trkpt>
      <trkpt lat="64.27625" lon="10.41147">
        <ele>55.195342</ele>
        <time>2020-08-09T12:33:44.717Z</time>
      </trkpt>
      <trkpt lat="64.27792" lon="10.40833">
        <ele>55.802175</ele>
        <time>2020-08-09T12:34:44.732Z</time>
      </trkpt>
      <trkpt lat="64.27981" lon="10.40633">
        <ele>50.340286</ele>
        <time>2020-08-09T12:35:36.714Z</time>
      </trkpt>
      <trkpt lat="64.28211" lon="10.40659">
        <ele>47.950717</ele>
        <time>2020-08-09T12:36:27.737Z</time>
      </trkpt>
      <trkpt lat="64.28401" lon="10.40847">
        <ele>46.965292</ele>
        <time>2020-08-09T12:37:09.753Z</time>
      </trkpt>
      <trkpt lat="64.28484" lon="10.40428">
        <ele>47.612447</ele>
        <time>2020-08-09T12:37:53.735Z</time>
      </trkpt>
      <trkpt lat="64.28646" lon="10.40309">
        <ele>56.858095</ele>
        <time>2020-08-09T12:39:46.720Z</time>
      </trkpt>
      <trkpt lat="64.28748" lon="10.40699">
        <ele>61.854492</ele>
        <time>2020-08-09T12:41:14.703Z</time>
      </trkpt>
      <trkpt lat="64.28879" lon="10.41071">
        <ele>71.086222</ele>
        <time>2020-08-09T12:43:24.784Z</time>
      </trkpt>
      <trkpt lat="64.28936" lon="10.41514">
        <ele>78.552026</ele>
        <time>2020-08-09T12:44:47.709Z</time>
      </trkpt>
      <trkpt lat="64.28895" lon="10.42067">
        <ele>76.433811</ele>
        <time>2020-08-09T12:45:27.725Z</time>
      </trkpt>
      <trkpt lat="64.28862" lon="10.42591">
        <ele>81.845121</ele>
        <time>2020-08-09T12:46:22.716Z</time>
      </trkpt>
      <trkpt lat="64.28845" lon="10.43114">
        <ele>86.197627</ele>
        <time>2020-08-09T12:53:00.722Z</time>
      </trkpt>
      <trkpt lat="64.28878" lon="10.43636">
        <ele>71.387292</ele>
        <time>2020-08-09T12:53:57.727Z</time>
      </trkpt>
      <trkpt lat="64.28929" lon="10.44297">
        <ele>47.665913</ele>
        <time>2020-08-09T12:54:35.715Z</time>
      </trkpt>
      <trkpt lat="64.29" lon="10.44735">
        <ele>44.309487</ele>
        <time>2020-08-09T12:55:16.699Z</time>
      </trkpt>
      <trkpt lat="64.29126" lon="10.45096">
        <ele>49.409398</ele>
        <time>2020-08-09T12:56:08.721Z</time>
      </trkpt>
      <trkpt lat="64.29255" lon="10.44806">
        <ele>56.667932</ele>
        <time>2020-08-09T12:57:50.734Z</time>
      </trkpt>
      <trkpt lat="64.29407" lon="10.44553">
        <ele>64.510773</ele>
        <time>2020-08-09T12:59:29.744Z</time>
      </trkpt>
      <trkpt lat="64.29617" lon="10.44572">
        <ele>66.308961</ele>
        <time>2020-08-09T13:00:40.726Z</time>
      </trkpt>
      <trkpt lat="64.29795" lon="10.44843">
        <ele>63.723929</ele>
        <time>2020-08-09T13:01:27.737Z</time>
      </trkpt>
      <trkpt lat="64.2977" lon="10.45352">
        <ele>65.963031</ele>
        <time>2020-08-09T13:02:10.716Z</time>
      </trkpt>
      <trkpt lat="64.29973" lon="10.45471">
        <ele>64.38177</ele>
        <time>2020-08-09T13:03:00.715Z</time>
      </trkpt>
      <trkpt lat="64.30189" lon="10.45666">
        <ele>54.54499</ele>
        <time>2020-08-09T13:03:34.705Z</time>
      </trkpt>
      <trkpt lat="64.30376" lon="10.45938">
        <ele>45.662067</ele>
        <time>2020-08-09T13:03:58.719Z</time>
      </trkpt>
      <trkpt lat="64.30524" lon="10.46353">
        <ele>45.330955</ele>
        <time>2020-08-09T13:04:44.745Z</time>
      </trkpt>
      <trkpt lat="64.30586" lon="10.46804">
        <ele>49.639719</ele>
        <time>2020-08-09T13:05:33.710Z</time>
      </trkpt>
      <trkpt lat="64.30449" lon="10.47061">
        <ele>49.993441</ele>
        <time>2020-08-09T13:06:26.751Z</time>
      </trkpt>
      <trkpt lat="64.30259" lon="10.47144">
        <ele>49.724125</ele>
        <time>2020-08-09T13:07:15.722Z</time>
      </trkpt>
      <trkpt lat="64.30096" lon="10.47464">
        <ele>51.060589</ele>
        <time>2020-08-09T13:08:15.702Z</time>
      </trkpt>
      <trkpt lat="64.30107" lon="10.48005">
        <ele>48.227686</ele>
        <time>2020-08-09T13:08:59.740Z</time>
      </trkpt>
      <trkpt lat="64.30232" lon="10.48483">
        <ele>47.118491</ele>
        <time>2020-08-09T13:09:39.745Z</time>
      </trkpt>
      <trkpt lat="64.30391" lon="10.48874">
        <ele>47.313984</ele>
        <time>2020-08-09T13:10:28.754Z</time>
      </trkpt>
      <trkpt lat="64.30527" lon="10.49278">
        <ele>45.764886</ele>
        <time>2020-08-09T13:11:08.721Z</time>
      </trkpt>
      <trkpt lat="64.30561" lon="10.49769">
        <ele>44.914059</ele>
        <time>2020-08-09T13:11:50.725Z</time>
      </trkpt>
      <trkpt lat="64.3061" lon="10.50273">
        <ele>44.403216</ele>
        <time>2020-08-09T13:12:34.759Z</time>
      </trkpt>
      <trkpt lat="64.30647" lon="10.50781">
        <ele>45.423093</ele>
        <time>2020-08-09T13:13:15.716Z</time>
      </trkpt>
      <trkpt lat="64.30609" lon="10.51261">
        <ele>56.325656</ele>
        <time>2020-08-09T13:14:59.746Z</time>
      </trkpt>
      <trkpt lat="64.30406" lon="10.51389">
        <ele>60.075017</ele>
        <time>2020-08-09T13:16:23.751Z</time>
      </trkpt>
      <trkpt lat="64.30169" lon="10.51266">
        <ele>51.369144</ele>
        <time>2020-08-09T13:17:03.709Z</time>
      </trkpt>
      <trkpt lat="64.29965" lon="10.51136">
        <ele>51.129275</ele>
        <time>2020-08-09T13:17:43.762Z</time>
      </trkpt>
      <trkpt lat="64.29777" lon="10.51063">
        <ele>59.187762</ele>
        <time>2020-08-09T13:19:24.731Z</time>
      </trkpt>
      <trkpt lat="64.29873" lon="10.50575">
        <ele>49.832853</ele>
        <time>2020-08-09T13:20:07.738Z</time>
      </trkpt>
      <trkpt lat="64.29933" lon="10.50062">
        <ele>45.17624</ele>
        <time>2020-08-09T13:20:52.708Z</time>
      </trkpt>
      <trkpt lat="64.30022" lon="10.49888">
        <ele>45.052677</ele>
        <time>2020-08-09T13:34:00.734Z</time>
      </trkpt>
    </trkseg>
  </trk>
</gpx>